Airfield :
LOGIN :

Register | Disclaimer

   EN    FR    IT 

 










Legend :    VFR   Marginal VFR   IFR   Intensive IFR   Very Intensive IFR
Visi :
Ceiling :
>= 8 km
>= 3000ft
5 to 8 km
1000 to 3000 ft
1500m to 5 km
500 to 1000 ft
800 to 1500m
200 to 500 ft
< 800m
< 200 ft
Symbols :   Thunderstorms  Fog  Heavy snow  Heavy precipitations  Wind > 20 kt
SIGMETs :     Misc.  Thunderstorms  Icing  Turbulence  Mountain Waves  Volcanic Ashes







- Airport Elevation : 100 ft


EBDT - Schaffen

CURRENT METAR :
  • 192025Z AUTO VRB02KT 9999 NCD 20/10 Q1024 BLU

EXPIRED METARs :
  • 191955Z AUTO 25003KT 9999 NCD 24/07 Q1024 BLU
  • 191925Z AUTO 20004KT 9999 NCD 24/08 Q1024 BLU
  • 191855Z AUTO 17003KT 9999 NCD 24/07 Q1023 BLU
  • 191825Z AUTO VRB02KT 9999 NCD 25/07 Q1023 BLU
  • 191755Z AUTO 18003KT 9999 NCD 26/06 Q1023 BLU

Expired Forecast.
No reported NOTAMs for that airfield.



MET'MAP, your aeronautical weather chart ! - Copyright ORBIFLY December 2007 - Disclaimer

ORBIFLY MET'MAP TEAM :

Programming & Development : Alexandra Zaïnal
Concept & Development : Baudouin d'Aumeries
Co-Development & Prog : Marc-Olivier Méhu
Technical & hardware support : Manuel Goepfert

Contact : metmap@orbifly.com




SOURCES & CREDITS :

   NOAA